createdAt,value
2019-03-13T00:01:23.724Z,65.84
2019-03-13T00:03:52.106Z,66.42
2019-03-13T00:06:24.247Z,66.90
2019-03-13T00:08:56.609Z,68.06
2019-03-13T00:11:28.476Z,69.88
2019-03-13T00:13:58.934Z,71.20
2019-03-13T00:16:29.686Z,72.33
2019-03-13T00:18:58.875Z,73.60
2019-03-13T00:21:29.043Z,73.30
2019-03-13T00:23:58.620Z,72.58
2019-03-13T00:26:29.427Z,73.32
2019-03-13T00:29:01.745Z,73.97
2019-03-13T00:31:31.159Z,73.11
2019-03-13T00:34:02.086Z,72.54
2019-03-13T00:36:31.191Z,72.08
2019-03-13T00:39:00.307Z,71.70
2019-03-13T00:41:29.413Z,72.18
2019-03-13T00:44:00.705Z,72.32
2019-03-13T00:46:29.467Z,72.91
2019-03-13T00:48:58.766Z,72.98
2019-03-13T00:51:28.972Z,73.57
2019-03-13T00:53:59.409Z,73.80
2019-03-13T00:56:31.703Z,73.62
2019-03-13T00:59:00.824Z,72.29
2019-03-13T01:01:44.105Z,71.82
2019-03-13T01:04:31.362Z,71.51
2019-03-13T01:07:06.301Z,71.91
2019-03-13T01:09:36.818Z,72.07
2019-03-13T01:12:07.283Z,71.31
2019-03-13T01:14:36.419Z,71.22
2019-03-13T01:17:07.803Z,71.71
2019-03-13T01:19:41.232Z,72.07
2019-03-13T01:22:10.851Z,72.18
2019-03-13T01:24:41.509Z,72.32
2019-03-13T01:27:12.354Z,70.96
2019-03-13T01:29:41.468Z,70.58
2019-03-13T01:32:41.546Z,71.38
2019-03-13T01:35:23.047Z,71.24
2019-03-13T01:37:55.473Z,71.09
2019-03-13T01:40:29.068Z,71.40
2019-03-13T01:42:59.880Z,70.88
2019-03-13T01:45:30.167Z,70.79
2019-03-13T01:48:01.022Z,71.17
2019-03-13T01:50:30.106Z,70.64
2019-03-13T01:53:00.972Z,70.50
2019-03-13T01:55:30.192Z,69.55
2019-03-13T01:57:59.299Z,69.53
2019-03-13T02:00:28.550Z,69.29
2019-03-13T02:02:58.767Z,69.90
2019-03-13T02:05:30.454Z,69.79
2019-03-13T02:08:01.053Z,69.20
2019-03-13T02:10:32.632Z,69.45
2019-03-13T02:13:01.784Z,69.28
2019-03-13T02:15:33.119Z,68.96
2019-03-13T02:18:06.569Z,68.33
2019-03-13T02:20:44.776Z,68.68
2019-03-13T02:23:17.127Z,68.11
2019-03-13T02:25:46.323Z,67.21
2019-03-13T02:28:15.412Z,66.17
2019-03-13T02:30:48.554Z,66.21
2019-03-13T02:33:19.854Z,66.59
2019-03-13T02:36:01.224Z,66.69
2019-03-13T02:38:30.350Z,66.88
2019-03-13T02:40:59.431Z,67.55
2019-03-13T02:43:29.601Z,67.26
2019-03-13T02:46:00.446Z,66.63
2019-03-13T02:48:29.541Z,66.36
2019-03-13T02:50:59.940Z,67.18
2019-03-13T02:53:29.033Z,66.45
2019-03-13T02:56:00.724Z,65.23
2019-03-13T02:58:31.531Z,66.07
2019-03-13T03:01:18.056Z,66.05
2019-03-13T03:03:54.580Z,66.01
2019-03-13T03:06:32.488Z,66.12
2019-03-13T03:09:07.293Z,66.11
2019-03-13T03:11:36.895Z,65.68
2019-03-13T03:14:06.548Z,66.98
2019-03-13T03:16:38.156Z,66.39
2019-03-13T03:19:07.272Z,66.77
2019-03-13T03:21:37.608Z,66.19
2019-03-13T03:24:08.034Z,65.92
2019-03-13T03:26:37.155Z,66.36
2019-03-13T03:29:11.239Z,66.00
2019-03-13T03:31:48.230Z,66.27
2019-03-13T03:34:23.561Z,65.36
2019-03-13T03:36:54.267Z,65.21
2019-03-13T03:39:23.424Z,65.15
2019-03-13T03:41:58.284Z,65.06
2019-03-13T03:44:29.839Z,65.43
2019-03-13T03:46:59.402Z,64.64
2019-03-13T03:49:30.612Z,63.70
2019-03-13T03:52:02.340Z,63.21
2019-03-13T03:54:32.439Z,63.18
2019-03-13T03:57:03.352Z,62.58
2019-03-13T03:59:33.556Z,61.91
2019-03-13T04:02:04.515Z,60.93
2019-03-13T04:04:34.688Z,62.00
2019-03-13T04:07:03.813Z,62.10
2019-03-13T04:09:32.898Z,61.31
2019-03-13T04:12:04.340Z,61.21
2019-03-13T04:14:33.512Z,61.48
2019-03-13T04:17:02.615Z,62.13
2019-03-13T04:19:31.682Z,63.45
2019-03-13T04:22:00.792Z,64.04
2019-03-13T04:24:29.856Z,63.87
2019-03-13T04:26:58.973Z,63.79
2019-03-13T04:29:29.849Z,63.01
2019-03-13T04:31:58.961Z,62.99
2019-03-13T04:34:28.067Z,62.42
2019-03-13T04:36:57.202Z,63.49
2019-03-13T04:39:28.368Z,63.67
2019-03-13T04:42:03.168Z,62.89
2019-03-13T04:44:39.905Z,62.80
2019-03-13T04:47:11.101Z,62.69
2019-03-13T04:49:40.799Z,63.65
2019-03-13T04:52:13.559Z,63.32
2019-03-13T04:54:44.233Z,62.80
2019-03-13T04:57:13.342Z,62.45
2019-03-13T04:59:51.727Z,62.27
2019-03-13T05:02:22.215Z,62.24
2019-03-13T05:04:53.819Z,63.39
2019-03-13T05:07:23.319Z,63.17
2019-03-13T05:09:55.657Z,62.34
2019-03-13T05:12:29.206Z,61.94
2019-03-13T05:14:58.746Z,61.30
2019-03-13T05:17:32.848Z,60.51
2019-03-13T05:20:07.177Z,58.74
2019-03-13T05:22:36.247Z,59.96
2019-03-13T05:25:05.732Z,58.41
2019-03-13T05:27:37.408Z,59.33
2019-03-13T05:30:06.803Z,58.53
2019-03-13T05:32:35.936Z,60.15
2019-03-13T05:35:05.280Z,59.15
2019-03-13T05:37:34.470Z,59.15
2019-03-13T05:40:03.962Z,57.91
2019-03-13T05:42:34.157Z,57.60
2019-03-13T05:45:08.431Z,58.15
2019-03-13T05:47:39.826Z,58.76
2019-03-13T05:50:10.468Z,59.16
2019-03-13T05:52:39.866Z,59.24
2019-03-13T05:55:09.090Z,59.66
2019-03-13T05:57:39.764Z,60.52
2019-03-13T06:00:09.068Z,61.86
2019-03-13T06:02:47.563Z,64.51
2019-03-13T06:05:14.284Z,64.27
2019-03-13T06:07:46.579Z,64.77
2019-03-13T06:10:17.284Z,65.11
2019-03-13T06:12:46.455Z,65.67
2019-03-13T06:15:15.736Z,66.05
2019-03-13T06:17:45.007Z,66.04
2019-03-13T06:20:23.569Z,66.13
2019-03-13T06:22:56.100Z,65.81
2019-03-13T06:25:25.213Z,66.96
2019-03-13T06:27:58.621Z,66.95
2019-03-13T06:30:32.286Z,67.59
2019-03-13T06:33:01.401Z,68.07
2019-03-13T06:35:34.856Z,73.52
2019-03-13T06:38:07.058Z,76.35
2019-03-13T06:40:38.296Z,76.40
2019-03-13T06:43:07.345Z,76.86
2019-03-13T06:45:37.214Z,76.81
2019-03-13T06:48:06.569Z,78.12
2019-03-13T06:50:40.151Z,79.15
2019-03-13T06:53:10.291Z,79.93
2019-03-13T06:55:39.629Z,79.47
2019-03-13T06:58:08.843Z,79.46
2019-03-13T07:00:56.620Z,78.07
2019-03-13T07:03:31.940Z,76.98
2019-03-13T07:06:22.850Z,76.39
2019-03-13T07:09:20.035Z,74.84
2019-03-13T07:12:00.220Z,74.39
2019-03-13T07:14:45.369Z,73.55
2019-03-13T07:17:35.804Z,71.92
2019-03-13T07:20:16.445Z,70.64
2019-03-13T07:22:53.506Z,70.41
2019-03-13T07:25:36.111Z,70.03
2019-03-13T07:28:16.333Z,69.66
2019-03-13T07:31:08.451Z,68.76
2019-03-13T07:34:10.132Z,67.16
2019-03-13T07:36:51.884Z,67.16
2019-03-13T07:39:58.182Z,67.15
2019-03-13T07:42:57.620Z,65.33
2019-03-13T07:45:36.577Z,64.57
2019-03-13T07:48:27.073Z,63.56
2019-03-13T07:51:07.315Z,63.62
2019-03-13T07:54:06.203Z,63.92
2019-03-13T07:56:57.305Z,63.67
2019-03-13T07:59:57.416Z,63.40
2019-03-13T08:02:37.481Z,62.86
2019-03-13T08:05:16.686Z,62.57
2019-03-13T08:08:12.339Z,61.43
2019-03-13T08:11:01.146Z,61.66
2019-03-13T08:13:51.735Z,60.72
2019-03-13T08:16:29.008Z,60.18
2019-03-13T08:19:19.945Z,59.63
2019-03-13T08:22:08.140Z,59.21
2019-03-13T08:24:57.705Z,58.83
2019-03-13T08:27:34.017Z,58.30
2019-03-13T08:30:23.623Z,57.64
2019-03-13T08:32:59.485Z,57.51
2019-03-13T08:35:47.377Z,58.00
2019-03-13T08:38:29.028Z,57.55
2019-03-13T08:41:04.228Z,56.84
2019-03-13T08:43:59.233Z,56.87
2019-03-13T08:46:50.293Z,56.56
2019-03-13T08:49:29.399Z,55.98
2019-03-13T08:52:16.942Z,55.03
2019-03-13T08:55:05.662Z,54.52
2019-03-13T08:57:57.116Z,54.89
2019-03-13T09:00:44.280Z,54.75
2019-03-13T09:03:27.941Z,54.67
2019-03-13T09:06:18.741Z,53.89
2019-03-13T09:09:05.383Z,54.49
2019-03-13T09:11:58.687Z,53.88
2019-03-13T09:14:49.719Z,53.70
2019-03-13T09:17:34.995Z,53.15
2019-03-13T09:20:35.441Z,52.71
2019-03-13T09:23:18.249Z,52.34
2019-03-13T09:26:24.241Z,52.23
2019-03-13T09:29:18.325Z,52.84
2019-03-13T09:32:11.180Z,52.44
2019-03-13T09:35:02.082Z,52.88
2019-03-13T09:37:42.482Z,54.05
2019-03-13T09:40:19.102Z,54.19
2019-03-13T09:43:24.382Z,54.64
2019-03-13T09:46:17.453Z,54.88
2019-03-13T09:49:15.002Z,54.46
2019-03-13T09:51:53.236Z,53.47
2019-03-13T09:54:58.518Z,54.05
2019-03-13T09:57:47.164Z,54.50
2019-03-13T10:00:35.405Z,54.45
2019-03-13T10:03:24.417Z,54.69
2019-03-13T10:06:08.827Z,55.75
2019-03-13T10:09:07.914Z,55.33
2019-03-13T10:11:46.234Z,55.87
2019-03-13T10:14:43.543Z,56.31
2019-03-13T10:17:39.559Z,58.59
2019-03-13T10:20:26.903Z,60.96
2019-03-13T10:23:15.458Z,60.76
2019-03-13T10:26:05.733Z,60.29
2019-03-13T10:28:53.873Z,59.70
2019-03-13T10:31:47.956Z,59.04
2019-03-13T10:34:39.119Z,58.82
2019-03-13T10:37:13.587Z,58.01
2019-03-13T10:40:05.219Z,58.88
2019-03-13T10:43:02.341Z,58.55
2019-03-13T10:45:47.546Z,59.21
2019-03-13T10:48:26.749Z,58.62
2019-03-13T10:51:13.497Z,58.14
2019-03-13T10:53:47.910Z,56.17
2019-03-13T10:56:38.416Z,55.06
2019-03-13T10:59:19.355Z,54.12
2019-03-13T11:02:08.252Z,53.38
2019-03-13T11:05:11.103Z,52.94
2019-03-13T11:07:59.288Z,53.10
2019-03-13T11:10:40.676Z,52.43
2019-03-13T11:13:24.063Z,52.42
2019-03-13T11:16:15.130Z,52.92
2019-03-13T11:18:56.420Z,52.74
2019-03-13T11:21:43.793Z,53.17
2019-03-13T11:24:28.261Z,52.48
2019-03-13T11:27:13.286Z,52.76
2019-03-13T11:30:07.410Z,52.61
2019-03-13T11:33:01.819Z,53.18
2019-03-13T11:35:43.141Z,52.58
2019-03-13T11:38:32.632Z,52.49
2019-03-13T11:41:27.012Z,52.08
2019-03-13T11:44:12.515Z,51.81
2019-03-13T11:46:59.930Z,52.07
2019-03-13T11:49:46.856Z,53.10
2019-03-13T11:52:38.236Z,53.62
2019-03-13T11:55:29.063Z,53.88
2019-03-13T11:58:15.903Z,53.52
2019-03-13T12:01:06.618Z,53.57
2019-03-13T12:04:09.794Z,53.67
2019-03-13T12:07:13.381Z,53.09
2019-03-13T12:10:02.986Z,52.12
2019-03-13T12:12:50.002Z,52.06
2019-03-13T12:15:27.804Z,50.87
2019-03-13T12:18:25.177Z,51.01
2019-03-13T12:21:11.995Z,51.08
2019-03-13T12:24:02.677Z,51.62
2019-03-13T12:26:50.954Z,51.66
2019-03-13T12:29:28.792Z,51.70
2019-03-13T12:32:26.474Z,52.01
2019-03-13T12:35:19.171Z,52.22
2019-03-13T12:38:08.925Z,51.91
2019-03-13T12:40:59.144Z,51.40
2019-03-13T12:44:05.659Z,50.34
2019-03-13T12:46:42.807Z,49.77
2019-03-13T12:49:31.434Z,49.79
2019-03-13T12:52:19.493Z,50.27
2019-03-13T12:55:16.662Z,51.09
2019-03-13T12:58:15.126Z,50.42
2019-03-13T13:01:08.581Z,50.44
2019-03-13T13:04:02.436Z,50.76
2019-03-13T13:06:48.948Z,51.20
2019-03-13T13:09:35.975Z,54.07
2019-03-13T13:12:19.919Z,54.96
2019-03-13T13:15:20.676Z,55.74
2019-03-13T13:18:17.631Z,57.92
2019-03-13T13:20:50.482Z,58.59
2019-03-13T13:23:24.550Z,57.66
2019-03-13T13:26:03.256Z,57.92
2019-03-13T13:28:32.425Z,56.79
2019-03-13T13:31:03.104Z,55.96
2019-03-13T13:33:32.401Z,55.05
2019-03-13T13:36:02.104Z,54.41
2019-03-13T13:38:33.919Z,53.45
2019-03-13T13:41:04.575Z,51.38
2019-03-13T13:43:37.319Z,52.24
2019-03-13T13:46:29.164Z,52.26
2019-03-13T13:48:58.359Z,51.29
2019-03-13T13:51:32.754Z,52.64
2019-03-13T13:54:02.103Z,52.75
2019-03-13T13:56:31.339Z,52.59
2019-03-13T13:59:02.147Z,53.90
2019-03-13T14:01:31.208Z,54.26
2019-03-13T14:04:00.382Z,53.91
2019-03-13T14:06:29.548Z,54.21
2019-03-13T14:09:01.128Z,54.58
2019-03-13T14:11:33.870Z,53.28
2019-03-13T14:14:04.901Z,53.63
2019-03-13T14:16:37.635Z,53.14
2019-03-13T14:19:06.761Z,52.57
2019-03-13T14:21:39.444Z,52.17
2019-03-13T14:24:17.775Z,51.77
2019-03-13T14:26:50.893Z,52.58
2019-03-13T14:29:20.098Z,52.81
2019-03-13T14:31:49.515Z,52.58
2019-03-13T14:34:18.820Z,51.57
2019-03-13T14:36:51.174Z,51.11
2019-03-13T14:39:20.261Z,50.80
2019-03-13T14:41:49.577Z,51.20
2019-03-13T14:44:23.587Z,51.29
2019-03-13T14:46:53.679Z,50.85
2019-03-13T14:49:24.825Z,50.78
2019-03-13T14:51:55.188Z,50.55
2019-03-13T14:54:26.623Z,51.54
2019-03-13T14:56:55.699Z,51.75
2019-03-13T14:59:24.799Z,51.73
2019-03-13T15:01:53.918Z,52.82
2019-03-13T15:04:23.035Z,53.28
2019-03-13T15:06:52.220Z,52.69
2019-03-13T15:09:22.436Z,53.49
2019-03-13T15:11:54.443Z,53.74
2019-03-13T15:14:23.543Z,54.53
2019-03-13T15:16:55.591Z,53.08
2019-03-13T15:19:24.668Z,52.72
2019-03-13T15:21:55.482Z,54.63
2019-03-13T15:24:24.589Z,55.40
2019-03-13T15:26:55.142Z,56.10
2019-03-13T15:29:27.158Z,56.60
2019-03-13T15:31:57.515Z,56.87
2019-03-13T15:34:28.595Z,56.91
2019-03-13T15:36:57.712Z,57.02
2019-03-13T15:39:27.606Z,57.84
2019-03-13T15:41:58.697Z,59.13
2019-03-13T15:44:28.023Z,58.89
2019-03-13T15:46:57.107Z,57.83
2019-03-13T15:49:27.423Z,57.75
2019-03-13T15:51:56.536Z,57.09
2019-03-13T15:54:26.082Z,57.54
2019-03-13T15:57:01.408Z,58.51
2019-03-13T15:59:26.131Z,59.14
2019-03-13T16:01:55.267Z,58.68
2019-03-13T16:04:24.366Z,59.05
2019-03-13T16:06:53.454Z,59.61
2019-03-13T16:09:22.754Z,58.98
2019-03-13T16:11:54.805Z,59.84
2019-03-13T16:14:25.441Z,59.22
2019-03-13T16:16:54.955Z,59.63
2019-03-13T16:19:25.611Z,59.04
2019-03-13T16:21:57.479Z,59.42
2019-03-13T16:24:37.847Z,59.67
2019-03-13T16:27:07.161Z,59.70
2019-03-13T16:29:37.400Z,59.68
2019-03-13T16:32:13.035Z,59.79
2019-03-13T16:34:42.119Z,58.44
2019-03-13T16:37:11.318Z,57.93
2019-03-13T16:39:40.458Z,57.86
2019-03-13T16:42:11.592Z,58.48
2019-03-13T16:44:40.794Z,58.02
2019-03-13T16:47:10.042Z,59.78
2019-03-13T16:49:41.233Z,58.90
2019-03-13T16:52:10.468Z,59.21
2019-03-13T16:54:39.608Z,59.18
2019-03-13T16:57:08.786Z,59.20
2019-03-13T16:59:39.733Z,59.37
2019-03-13T17:02:08.820Z,58.80
2019-03-13T17:04:37.968Z,57.87
2019-03-13T17:07:10.198Z,57.29
2019-03-13T17:09:39.368Z,57.81
2019-03-13T17:12:10.963Z,58.87
2019-03-13T17:14:40.075Z,60.14
2019-03-13T17:17:10.391Z,60.06
2019-03-13T17:19:41.106Z,59.64
2019-03-13T17:22:13.273Z,60.51
2019-03-13T17:24:43.587Z,61.33
2019-03-13T17:27:12.801Z,61.23
2019-03-13T17:29:44.483Z,61.55
2019-03-13T17:32:15.267Z,62.52
2019-03-13T17:34:55.714Z,63.47
2019-03-13T17:37:24.950Z,63.47
2019-03-13T17:40:00.156Z,63.71
2019-03-13T17:42:29.491Z,63.68
2019-03-13T17:44:58.759Z,63.52
2019-03-13T17:47:27.855Z,64.36
2019-03-13T17:49:56.936Z,63.99
2019-03-13T17:52:27.819Z,64.09
2019-03-13T17:54:57.034Z,65.00
2019-03-13T17:57:26.124Z,64.69
2019-03-13T17:59:55.219Z,65.25
2019-03-13T18:02:24.297Z,64.99
2019-03-13T18:04:53.492Z,65.31
2019-03-13T18:07:24.303Z,65.44
2019-03-13T18:09:53.411Z,65.28
2019-03-13T18:12:24.323Z,65.79
2019-03-13T18:14:53.553Z,65.92
2019-03-13T18:17:26.796Z,65.75
2019-03-13T18:19:56.291Z,65.10
2019-03-13T18:22:25.735Z,65.41
2019-03-13T18:24:55.027Z,65.62
2019-03-13T18:27:29.767Z,65.52
2019-03-13T18:29:58.883Z,65.55
2019-03-13T18:32:41.302Z,66.13
2019-03-13T18:35:01.392Z,65.80
2019-03-13T18:37:30.496Z,68.07
2019-03-13T18:40:01.140Z,71.46
2019-03-13T18:42:30.237Z,72.48
2019-03-13T18:44:59.368Z,74.34
2019-03-13T18:47:29.888Z,74.41
2019-03-13T18:50:01.104Z,75.58
2019-03-13T18:52:30.441Z,76.41
2019-03-13T18:54:59.553Z,76.96
2019-03-13T18:57:30.068Z,77.14
2019-03-13T18:59:59.354Z,77.38
2019-03-13T19:02:33.680Z,78.46
2019-03-13T19:05:02.808Z,78.60
2019-03-13T19:07:36.083Z,78.73
2019-03-13T19:10:03.054Z,79.23
2019-03-13T19:12:35.671Z,78.97
2019-03-13T19:15:08.260Z,78.70
2019-03-13T19:17:43.394Z,79.57
2019-03-13T19:20:15.413Z,79.04
2019-03-13T19:22:46.194Z,78.70
2019-03-13T19:25:15.391Z,78.67
2019-03-13T19:27:44.542Z,79.64
2019-03-13T19:30:19.810Z,79.29
2019-03-13T19:32:52.328Z,79.58
2019-03-13T19:35:21.459Z,80.31
2019-03-13T19:37:50.599Z,79.68
2019-03-13T19:40:24.483Z,79.73
2019-03-13T19:42:53.650Z,80.24
2019-03-13T19:45:25.929Z,80.09
2019-03-13T19:47:55.677Z,79.83
2019-03-13T19:50:27.885Z,79.67
2019-03-13T19:53:00.339Z,79.88
2019-03-13T19:55:29.420Z,80.20
2019-03-13T19:57:59.049Z,80.39
2019-03-13T20:00:28.327Z,80.14
2019-03-13T20:03:00.252Z,80.12
2019-03-13T20:05:28.499Z,80.58
2019-03-13T20:07:59.706Z,80.57
2019-03-13T20:10:29.347Z,81.02
2019-03-13T20:12:58.500Z,80.34
2019-03-13T20:15:28.919Z,80.30
2019-03-13T20:17:58.006Z,79.65
2019-03-13T20:20:29.450Z,80.34
2019-03-13T20:22:59.875Z,79.64
2019-03-13T20:25:29.145Z,79.43
2019-03-13T20:27:58.231Z,78.72
2019-03-13T20:30:27.353Z,77.95
2019-03-13T20:32:58.928Z,77.40
2019-03-13T20:35:28.143Z,77.84
2019-03-13T20:37:58.932Z,77.81
2019-03-13T20:40:28.250Z,78.08
2019-03-13T20:43:01.983Z,77.17
2019-03-13T20:45:34.132Z,75.70
2019-03-13T20:48:03.297Z,75.94
2019-03-13T20:50:37.126Z,75.44
2019-03-13T20:53:03.542Z,75.88
2019-03-13T20:55:37.899Z,76.05
2019-03-13T20:58:06.999Z,75.55
2019-03-13T21:00:38.518Z,75.30
2019-03-13T21:03:09.735Z,75.69
2019-03-13T21:05:39.067Z,76.29
2019-03-13T21:08:09.272Z,75.51
2019-03-13T21:10:40.196Z,76.38
2019-03-13T21:13:12.611Z,75.54
2019-03-13T21:15:44.835Z,76.61
2019-03-13T21:18:13.968Z,76.56
2019-03-13T21:20:43.096Z,76.58
2019-03-13T21:23:12.223Z,76.48
2019-03-13T21:25:44.783Z,78.02
2019-03-13T21:28:15.174Z,78.35
2019-03-13T21:30:47.635Z,80.32
2019-03-13T21:33:18.209Z,80.23
2019-03-13T21:35:47.476Z,80.12
2019-03-13T21:38:16.590Z,79.60
2019-03-13T21:40:47.097Z,79.92
2019-03-13T21:43:16.609Z,80.48
2019-03-13T21:45:49.224Z,80.80
2019-03-13T21:48:20.518Z,80.69
2019-03-13T21:50:54.548Z,80.41
2019-03-13T21:53:27.885Z,80.81
2019-03-13T21:55:57.018Z,80.77
2019-03-13T21:58:26.339Z,81.29
2019-03-13T22:01:00.002Z,80.61
2019-03-13T22:03:32.435Z,80.69
2019-03-13T22:06:03.158Z,81.37
2019-03-13T22:08:32.276Z,81.31
2019-03-13T22:11:03.243Z,81.10
2019-03-13T22:13:32.803Z,80.96
2019-03-13T22:16:03.828Z,80.95
2019-03-13T22:18:36.484Z,81.69
2019-03-13T22:21:05.856Z,82.10
2019-03-13T22:23:37.355Z,82.23
2019-03-13T22:26:09.215Z,81.84
2019-03-13T22:28:38.459Z,81.18
2019-03-13T22:31:10.282Z,80.09
2019-03-13T22:33:39.862Z,80.01
2019-03-13T22:36:08.950Z,80.39
2019-03-13T22:38:38.069Z,80.91
2019-03-13T22:41:09.532Z,80.58
2019-03-13T22:43:38.846Z,80.47
2019-03-13T22:46:13.938Z,80.29
2019-03-13T22:48:58.167Z,80.69
2019-03-13T22:51:22.186Z,79.81
2019-03-13T22:53:51.415Z,79.66
2019-03-13T22:56:21.711Z,78.85
2019-03-13T22:58:52.010Z,80.09
2019-03-13T23:01:21.448Z,78.44
2019-03-13T23:03:51.381Z,79.09
2019-03-13T23:06:20.698Z,79.09
2019-03-13T23:08:49.820Z,78.45
2019-03-13T23:11:19.763Z,78.26
2019-03-13T23:13:49.032Z,78.03
2019-03-13T23:16:23.756Z,77.61
2019-03-13T23:18:52.979Z,78.10
2019-03-13T23:21:22.066Z,78.70
2019-03-13T23:23:51.169Z,78.40
2019-03-13T23:26:20.245Z,78.46
2019-03-13T23:28:50.776Z,77.84
2019-03-13T23:31:21.620Z,77.89
2019-03-13T23:34:00.987Z,77.62
2019-03-13T23:36:30.118Z,78.47
2019-03-13T23:39:02.459Z,78.85
2019-03-13T23:41:31.569Z,78.99
2019-03-13T23:44:00.885Z,78.86
2019-03-13T23:46:31.585Z,78.08
2019-03-13T23:49:00.686Z,78.30
2019-03-13T23:51:32.746Z,78.79
2019-03-13T23:54:01.874Z,78.72
2019-03-13T23:56:30.982Z,78.95
2019-03-13T23:59:00.143Z,78.67
